TimeICT,TemperatureF,Dew PointF,Humidity,Sea Level PressureIn,VisibilityMPH,Wind Direction,Wind SpeedMPH,Gust SpeedMPH,PrecipitationIn,Events,Conditions,WindDirDegrees,DateUTC
12:00 AM,75.2,71.6,89,29.86,4.3,Calm,Calm,-,N/A,,Mostly Cloudy,0,2012-10-18 17:00:00
12:30 AM,75.2,71.6,89,29.86,4.3,Calm,Calm,-,N/A,,Mostly Cloudy,0,2012-10-18 17:30:00
1:00 AM,75,71,84,29.86,4,Calm,Calm,,,,Mist,,2012-10-18 18:00:00
1:00 AM,75.2,71.6,89,29.86,4.3,Calm,Calm,-,N/A,,Mostly Cloudy,0,2012-10-18 18:00:00
1:30 AM,75.2,71.6,89,29.83,4.3,NE,2.3,-,N/A,,Mostly Cloudy,40,2012-10-18 18:30:00
2:00 AM,75.2,71.6,89,29.83,4.3,Calm,Calm,-,N/A,,Mostly Cloudy,0,2012-10-18 19:00:00
2:30 AM,73.4,69.8,88,29.80,4.3,Calm,Calm,-,N/A,,Mostly Cloudy,0,2012-10-18 19:30:00
3:00 AM,75.2,71.6,89,29.80,4.3,WNW,2.3,-,N/A,,Mostly Cloudy,300,2012-10-18 20:00:00
3:30 AM,75.2,71.6,89,29.80,3.1,Calm,Calm,-,N/A,,Mostly Cloudy,0,2012-10-18 20:30:00
4:00 AM,73.4,71.6,94,29.80,3.1,Calm,Calm,-,N/A,,Mostly Cloudy,0,2012-10-18 21:00:00
4:30 AM,73.4,71.6,94,29.80,3.1,Calm,Calm,-,N/A,,Mostly Cloudy,0,2012-10-18 21:30:00
5:00 AM,73.4,71.6,94,29.80,3.1,NNW,2.3,-,N/A,,Mostly Cloudy,340,2012-10-18 22:00:00
5:30 AM,75.2,71.6,89,29.83,3.1,NW,2.3,-,N/A,,Mostly Cloudy,310,2012-10-18 22:30:00
6:00 AM,75.2,71.6,89,29.83,3.1,Calm,Calm,-,N/A,,Mostly Cloudy,0,2012-10-18 23:00:00
6:30 AM,75.2,71.6,89,29.83,3.7,Calm,Calm,-,N/A,,Mostly Cloudy,0,2012-10-18 23:30:00
7:00 AM,75,72,86,29.85,4,North,2.3,,,,Mist,0,2012-10-19 00:00:00
7:00 AM,75.2,71.6,89,29.86,4.3,North,2.3,-,N/A,,Mostly Cloudy,360,2012-10-19 00:00:00
7:30 AM,77.0,73.4,89,29.86,4.3,Calm,Calm,-,N/A,,Mostly Cloudy,0,2012-10-19 00:30:00
8:00 AM,78.8,75.2,89,29.86,5.6,North,3.5,-,N/A,,Mostly Cloudy,350,2012-10-19 01:00:00
8:30 AM,82.4,77.0,84,29.89,5.6,North,3.5,-,N/A,,Mostly Cloudy,350,2012-10-19 01:30:00
9:00 AM,82.4,77.0,84,29.89,5.6,North,4.6,-,N/A,,Mostly Cloudy,350,2012-10-19 02:00:00
9:30 AM,82.4,77.0,84,29.89,5.6,North,5.8,-,N/A,,Mostly Cloudy,10,2012-10-19 02:30:00
10:00 AM,82.4,77.0,84,29.89,5.0,NE,6.9,-,N/A,Rain,Light Rain,40,2012-10-19 03:00:00
10:30 AM,82.4,77.0,84,29.89,5.6,North,6.9,-,N/A,,Mostly Cloudy,10,2012-10-19 03:30:00
11:00 AM,84.2,77.0,79,29.89,5.6,NE,6.9,-,N/A,,Mostly Cloudy,50,2012-10-19 04:00:00
11:30 AM,82.4,75.2,79,29.89,5.6,NE,9.2,-,N/A,Rain,Light Rain,40,2012-10-19 04:30:00
12:00 PM,82.4,75.2,79,29.89,5.6,North,6.9,-,N/A,,Mostly Cloudy,10,2012-10-19 05:00:00
12:30 PM,84.2,77.0,79,29.86,5.0,North,5.8,-,N/A,,Mostly Cloudy,10,2012-10-19 05:30:00
1:00 PM,85,77,71,29.85,5,North,11.5,,,,Mist,0,2012-10-19 06:00:00
1:00 PM,84.2,77.0,79,29.83,5.0,North,11.5,-,N/A,,Mostly Cloudy,360,2012-10-19 06:00:00
1:30 PM,80.6,75.2,84,29.83,5.0,North,8.1,-,N/A,Rain,Light Rain,360,2012-10-19 06:30:00
2:00 PM,77.0,73.4,89,29.83,4.3,NE,8.1,-,N/A,Rain,Light Rain,40,2012-10-19 07:00:00
2:30 PM,77.0,71.6,83,29.83,4.3,NNE,10.4,-,N/A,Rain,Light Rain,20,2012-10-19 07:30:00
3:00 PM,75.2,69.8,83,29.83,5.0,NNW,3.5,-,N/A,Rain,Light Rain,340,2012-10-19 08:00:00
3:30 PM,77.0,71.6,83,29.83,5.6,WNW,3.5,-,N/A,Rain,Light Rain,300,2012-10-19 08:30:00
4:00 PM,77.0,71.6,83,29.83,5.0,West,3.5,-,N/A,,Overcast,270,2012-10-19 09:00:00
4:30 PM,77.0,73.4,89,29.83,5.0,WNW,4.6,-,N/A,,Overcast,290,2012-10-19 09:30:00
5:00 PM,77.0,73.4,89,29.83,5.6,WNW,3.5,-,N/A,,Overcast,300,2012-10-19 10:00:00
5:30 PM,77.0,73.4,89,29.83,5.0,NW,3.5,-,N/A,,Overcast,310,2012-10-19 10:30:00
6:00 PM,77.0,73.4,89,29.83,5.0,Calm,Calm,-,N/A,,Overcast,0,2012-10-19 11:00:00
6:30 PM,77.0,71.6,83,29.86,5.0,Calm,Calm,-,N/A,,Overcast,0,2012-10-19 11:30:00
7:00 PM,77,73,83,29.86,5,Calm,Calm,,,,Mist,,2012-10-19 12:00:00
7:00 PM,77.0,73.4,89,29.86,5.0,Calm,Calm,-,N/A,,Mostly Cloudy,0,2012-10-19 12:00:00
7:30 PM,77.0,71.6,83,29.86,5.0,Calm,Calm,-,N/A,,Mostly Cloudy,0,2012-10-19 12:30:00
8:00 PM,77.0,71.6,83,29.86,4.3,Calm,Calm,-,N/A,,Mostly Cloudy,0,2012-10-19 13:00:00
8:30 PM,77.0,73.4,89,29.89,5.0,Calm,Calm,-,N/A,,Mostly Cloudy,0,2012-10-19 13:30:00
9:00 PM,77.0,73.4,89,29.89,5.0,North,3.5,-,N/A,,Mostly Cloudy,350,2012-10-19 14:00:00
9:30 PM,77.0,71.6,83,29.89,5.0,Calm,Calm,-,N/A,,Mostly Cloudy,0,2012-10-19 14:30:00
10:00 PM,77.0,73.4,89,29.89,5.0,Calm,Calm,-,N/A,,Mostly Cloudy,0,2012-10-19 15:00:00
10:30 PM,77.0,73.4,89,29.89,5.0,Calm,Calm,-,N/A,,Mostly Cloudy,0,2012-10-19 15:30:00
11:00 PM,77.0,73.4,89,29.89,5.0,Calm,Calm,-,N/A,,Mostly Cloudy,0,2012-10-19 16:00:00
11:30 PM,77.0,71.6,83,29.89,5.0,Calm,Calm,-,N/A,,Mostly Cloudy,0,2012-10-19 16:30:00